Terminal Aerodrome Forecast
Issued by NWS Boise, ID

Home | Current Version | Previous Version | Text Only | Print | Product List | Glossary On
Versions: 1 2 3 4 5 6 7 8 9 10 11 12 13 14 15 16 17 18 19 20 21 22 23 24 25 26 27 28 29 30 31 32 33 34 35 36 37 38 39 40 41 42 43 44 45 46 47 48 49 50
000
FTUS45 KBOI 190524
TAFBNO
TAF
KBNO 190524Z 1906/2006 VRB06KT P6SM VCSH SCT040 OVC060
      TEMPO 1906/1909 4SM -SHRASN BR OVC030
     FM190900 VRB05KT 3SM -SN BR OVC025
     FM191600 VRB03KT P6SM VCSH BKN035 OVC050
     FM200200 VRB03KT P6SM OVC100=

USA.gov is the U.S. government's official web portal to all federal, state and local government web resources and services.